Time;durP1;ratioP1;P1;durP2;ratioP2;P2;SDS_P1;SDS_P2;PMS_P1;PMS_P2;Temp;Humidity;BMP_temperature;BMP_pressure;BME280_temperature;BME280_humidity;BME280_pressure;Samples;Min_cycle;Max_cycle;Signal;HPM_P1;HPM_P2
2022/11/05 00:10:41;;;;;;;14.30;1.75;;;;;;;;;;5092382;28;20112;-74
2022/11/05 00:18:37;;;;;;;12.73;2.10;;;;;;;;;;5092192;28;20071;-74
2022/11/05 00:21:02;;;;;;;12.35;2.13;;;;;;;;;;5092310;28;20055;-74
2022/11/05 00:26:12;;;;;;;14.45;1.92;;;;;;;;;;5092244;28;20046;-73
2022/11/05 00:28:42;;;;;;;14.38;2.30;;;;;;;;;;5091666;28;20383;-74
2022/11/05 00:31:10;;;;;;;15.40;2.15;;;;;;;;;;5092014;28;20035;-74
2022/11/05 00:33:41;;;;;;;15.20;2.17;;;;;;;;;;5091555;28;20020;-74
2022/11/05 00:36:07;;;;;;;;;;;;;;;;;;5092235;28;20499;-74
2022/11/05 00:38:33;;;;;;;10.40;1.83;;;;;;;;;;5091590;28;20371;-74
2022/11/05 00:40:59;;;;;;;11.20;1.90;;;;;;;;;;5091767;28;20070;-74
2022/11/05 00:46:08;;;;;;;10.45;1.85;;;;;;;;;;5091949;28;20039;-73
2022/11/05 00:51:19;;;;;;;11.32;1.95;;;;;;;;;;5091856;28;20088;-74
2022/11/05 00:53:44;;;;;;;12.30;2.08;;;;;;;;;;5091141;28;20043;-73
2022/11/05 00:56:09;;;;;;;12.70;2.13;;;;;;;;;;5091275;28;20600;-74
2022/11/05 00:58:35;;;;;;;11.70;1.70;;;;;;;;;;5091180;28;20060;-74
2022/11/05 01:01:01;;;;;;;6.20;1.58;;;;;;;;;;5091329;28;20067;-73
2022/11/05 01:03:32;;;;;;;13.85;2.28;;;;;;;;;;5091219;28;20039;-73
2022/11/05 01:06:14;;;;;;;15.30;2.10;;;;;;;;;;5091259;28;20026;-73
2022/11/05 01:08:42;;;;;;;15.07;2.15;;;;;;;;;;5091057;28;20031;-73
2022/11/05 01:11:12;;;;;;;13.15;2.00;;;;;;;;;;5091012;28;20391;-73
2022/11/05 01:13:39;;;;;;;11.95;2.08;;;;;;;;;;5090459;28;20070;-73
2022/11/05 01:16:07;;;;;;;9.30;2.05;;;;;;;;;;5072966;28;20115;-73
2022/11/05 01:18:32;;;;;;;10.65;2.20;;;;;;;;;;5090784;28;20575;-73
2022/11/05 01:20:58;;;;;;;13.98;2.15;;;;;;;;;;5090791;28;20103;-73
2022/11/05 01:23:23;;;;;;;8.75;1.92;;;;;;;;;;5091021;28;20487;-73
2022/11/05 01:25:49;;;;;;;10.95;1.77;;;;;;;;;;5090657;28;20499;-73
2022/11/05 01:28:14;;;;;;;13.27;2.13;;;;;;;;;;5090430;28;20110;-73
2022/11/05 01:30:39;;;;;;;11.23;1.88;;;;;;;;;;5090781;28;20028;-73
2022/11/05 01:33:05;;;;;;;12.05;2.30;;;;;;;;;;5090366;28;20032;-73
2022/11/05 01:35:31;;;;;;;16.20;2.00;;;;;;;;;;5090665;28;20063;-73
2022/11/05 01:37:56;;;;;;;14.55;2.25;;;;;;;;;;5090388;28;20552;-73
2022/11/05 01:40:23;;;;;;;13.68;1.92;;;;;;;;;;5090829;28;20058;-75
2022/11/05 01:42:48;;;;;;;9.73;1.92;;;;;;;;;;5090823;28;20112;-73
2022/11/05 01:45:18;;;;;;;14.63;2.00;;;;;;;;;;5090473;28;20028;-73
2022/11/05 01:47:50;;;;;;;12.18;1.90;;;;;;;;;;5090577;28;20032;-73
2022/11/05 01:50:27;;;;;;;15.02;2.08;;;;;;;;;;5090776;28;20389;-73
2022/11/05 01:53:07;;;;;;;14.48;1.70;;;;;;;;;;5072283;28;20126;-73
2022/11/05 01:55:37;;;;;;;11.10;1.98;;;;;;;;;;5090267;28;20036;-73
2022/11/05 01:58:06;;;;;;;15.48;2.13;;;;;;;;;;5071675;28;20047;-73
2022/11/05 02:00:32;;;;;;;16.25;2.40;;;;;;;;;;5071929;28;20564;-73
2022/11/05 02:02:58;;;;;;;12.32;1.90;;;;;;;;;;5072367;28;20070;-73
2022/11/05 02:05:24;;;;;;;15.40;2.00;;;;;;;;;;5089996;28;20020;-73
2022/11/05 02:07:50;;;;;;;13.88;1.90;;;;;;;;;;5090333;28;20059;-74
2022/11/05 02:10:16;;;;;;;12.13;1.50;;;;;;;;;;5090014;28;20441;-73
2022/11/05 02:12:44;;;;;;;12.25;2.00;;;;;;;;;;5090200;28;20028;-74
2022/11/05 02:15:16;;;;;;;12.45;2.22;;;;;;;;;;5089872;28;20025;-73
2022/11/05 02:18:30;;;;;;;14.15;1.90;;;;;;;;;;5071868;28;20031;-73
2022/11/05 02:21:37;;;;;;;12.85;1.75;;;;;;;;;;5058420;28;20036;-73
2022/11/05 02:24:21;;;;;;;9.73;1.80;;;;;;;;;;5089123;28;20107;-73
2022/11/05 02:27:06;;;;;;;13.32;1.77;;;;;;;;;;5090516;28;20308;-73
2022/11/05 02:30:05;;;;;;;12.32;1.77;;;;;;;;;;5090159;28;20024;-73
2022/11/05 02:32:54;;;;;;;10.75;1.50;;;;;;;;;;5090533;28;20036;-73
2022/11/05 02:35:58;;;;;;;10.73;1.80;;;;;;;;;;5089737;28;20034;-73
2022/11/05 02:38:46;;;;;;;8.75;1.90;;;;;;;;;;5088907;28;20043;-73
2022/11/05 02:41:22;;;;;;;14.38;2.28;;;;;;;;;;5089880;28;20028;-73
2022/11/05 02:44:34;;;;;;;12.93;2.03;;;;;;;;;;5089563;28;20024;-73
2022/11/05 02:47:18;;;;;;;14.23;2.00;;;;;;;;;;5057858;28;20036;-73
2022/11/05 02:49:58;;;;;;;9.77;1.55;;;;;;;;;;5089471;28;20054;-73
2022/11/05 02:52:36;;;;;;;11.75;1.92;;;;;;;;;;5089687;28;20391;-73
2022/11/05 02:55:06;;;;;;;12.25;1.90;;;;;;;;;;5089398;28;20032;-73
2022/11/05 02:57:34;;;;;;;10.88;1.77;;;;;;;;;;5089305;28;20056;-73
2022/11/05 03:00:22;;;;;;;11.43;2.10;;;;;;;;;;5089304;28;20067;-73
2022/11/05 03:02:47;;;;;;;15.23;1.70;;;;;;;;;;5075235;28;20040;-73
2022/11/05 03:05:13;;;;;;;12.23;2.00;;;;;;;;;;5089434;28;20395;-73
2022/11/05 03:07:54;;;;;;;10.68;1.90;;;;;;;;;;5089718;28;20020;-73
2022/11/05 03:10:32;;;;;;;13.85;1.98;;;;;;;;;;5089351;28;20032;-73
2022/11/05 03:13:07;;;;;;;10.20;1.73;;;;;;;;;;5089544;28;20032;-73
2022/11/05 03:15:35;;;;;;;5.82;1.48;;;;;;;;;;5089167;28;20032;-73
2022/11/05 03:18:03;;;;;;;13.55;1.90;;;;;;;;;;5089392;28;20024;-73
2022/11/05 03:20:35;;;;;;;11.68;1.90;;;;;;;;;;5089099;28;20066;-74
2022/11/05 03:23:18;;;;;;;15.95;2.00;;;;;;;;;;5089973;28;20046;-75
2022/11/05 03:25:48;;;;;;;9.13;1.58;;;;;;;;;;5088928;28;20075;-74
2022/11/05 03:28:18;;;;;;;12.57;1.63;;;;;;;;;;5071170;28;20436;-74
2022/11/05 03:30:46;;;;;;;9.02;1.48;;;;;;;;;;5089123;28;20570;-74
2022/11/05 03:33:17;;;;;;;11.43;1.70;;;;;;;;;;5089193;28;20016;-74
2022/11/05 03:35:52;;;;;;;11.43;1.90;;;;;;;;;;5091204;28;20020;-73
2022/11/05 03:38:26;;;;;;;15.60;2.30;;;;;;;;;;5092915;28;20036;-74
2022/11/05 03:40:54;;;;;;;14.88;2.38;;;;;;;;;;5092806;28;20480;-74
2022/11/05 03:43:23;;;;;;;12.50;1.85;;;;;;;;;;5092960;28;20038;-74
2022/11/05 03:45:56;;;;;;;8.32;1.52;;;;;;;;;;5092388;28;20028;-74
2022/11/05 03:48:25;;;;;;;16.02;2.17;;;;;;;;;;5092758;28;20434;-74
2022/11/05 03:51:18;;;;;;;14.38;2.05;;;;;;;;;;5092358;28;20020;-74
2022/11/05 03:54:04;;;;;;;13.85;2.00;;;;;;;;;;5074628;28;20391;-74
2022/11/05 03:56:32;;;;;;;12.00;2.00;;;;;;;;;;5091722;28;20638;-74
2022/11/05 03:58:59;;;;;;;12.55;1.98;;;;;;;;;;5092635;28;20044;-74
2022/11/05 04:01:25;;;;;;;10.02;1.73;;;;;;;;;;5092443;28;20492;-74
2022/11/05 04:03:50;;;;;;;9.88;1.73;;;;;;;;;;5074452;28;20103;-74
2022/11/05 04:14:27;;;;;;;12.40;2.00;;;;;;;;;;5092472;28;20067;-74
2022/11/05 04:17:05;;;;;;;13.25;2.38;;;;;;;;;;5092142;28;20056;-74
2022/11/05 04:24:59;;;;;;;12.48;1.70;;;;;;;;;;5091588;28;20407;-74
2022/11/05 04:27:24;;;;;;;13.93;2.10;;;;;;;;;;5091786;28;20468;-74
2022/11/05 04:32:33;;;;;;;15.32;2.00;;;;;;;;;;5092135;28;20097;-74
2022/11/05 04:34:59;;;;;;;16.23;2.15;;;;;;;;;;5091358;28;20407;-74
2022/11/05 04:37:24;;;;;;;11.65;1.88;;;;;;;;;;5091700;28;20028;-73
2022/11/05 04:39:50;;;;;;;11.07;1.85;;;;;;;;;;5091761;28;20070;-74
2022/11/05 04:42:15;;;;;;;10.02;1.65;;;;;;;;;;5091457;28;20024;-74
2022/11/05 04:44:40;;;;;;;8.25;1.88;;;;;;;;;;5091436;28;20020;-74
2022/11/05 04:47:06;;;;;;;11.52;2.33;;;;;;;;;;5090865;28;20628;-73
2022/11/05 04:49:31;;;;;;;10.73;1.80;;;;;;;;;;5091649;28;20023;-74
2022/11/05 04:51:56;;;;;;;12.90;1.90;;;;;;;;;;5091512;28;20497;-73
2022/11/05 04:54:22;;;;;;;12.10;2.22;;;;;;;;;;5091323;28;20090;-73
2022/11/05 04:56:47;;;;;;;11.15;1.85;;;;;;;;;;5072867;28;20063;-74
2022/11/05 04:59:13;;;;;;;12.38;2.10;;;;;;;;;;5091575;28;20464;-75
2022/11/05 05:01:38;;;;;;;10.15;1.80;;;;;;;;;;5090984;28;20020;-74
2022/11/05 05:04:03;;;;;;;13.45;1.77;;;;;;;;;;5091325;28;20020;-73
2022/11/05 05:06:29;;;;;;;8.25;1.70;;;;;;;;;;5090939;28;20024;-74
2022/11/05 05:08:54;;;;;;;13.77;1.90;;;;;;;;;;5073081;28;20035;-73
2022/11/05 05:11:21;;;;;;;12.15;2.08;;;;;;;;;;5091046;28;20511;-73
2022/11/05 05:13:47;;;;;;;12.10;1.90;;;;;;;;;;5091045;28;20085;-74
2022/11/05 05:16:24;;;;;;;11.15;2.10;;;;;;;;;;5090744;28;20135;-74
2022/11/05 05:18:50;;;;;;;13.85;2.17;;;;;;;;;;5091185;28;20034;-74
2022/11/05 05:24:02;;;;;;;11.65;2.10;;;;;;;;;;5091109;28;20089;-74
2022/11/05 05:26:27;;;;;;;10.60;2.33;;;;;;;;;;5090412;28;20499;-74
2022/11/05 05:28:53;;;;;;;12.05;2.30;;;;;;;;;;5091174;28;20020;-74
2022/11/05 05:31:20;;;;;;;10.27;1.83;;;;;;;;;;5090882;28;20468;-74
2022/11/05 05:33:45;;;;;;;14.93;2.30;;;;;;;;;;5090921;28;20031;-74
2022/11/05 05:36:11;;;;;;;12.73;2.33;;;;;;;;;;5090389;28;20024;-73
2022/11/05 05:38:36;;;;;;;14.73;2.10;;;;;;;;;;5090530;28;20020;-74
2022/11/05 05:41:02;;;;;;;10.40;2.08;;;;;;;;;;5090681;28;20055;-74
2022/11/05 05:43:31;;;;;;;12.50;2.17;;;;;;;;;;5090437;28;20510;-73
2022/11/05 05:46:01;;;;;;;8.48;1.80;;;;;;;;;;5090086;28;20226;-74
2022/11/05 05:48:26;;;;;;;10.10;2.05;;;;;;;;;;5072545;28;20058;-73
2022/11/05 05:50:52;;;;;;;9.93;2.40;;;;;;;;;;5090368;28;20507;-74
2022/11/05 05:53:17;;;;;;;11.65;1.92;;;;;;;;;;5072176;28;20020;-73
2022/11/05 05:55:43;;;;;;;9.23;2.03;;;;;;;;;;5090249;28;20412;-73
2022/11/05 05:58:08;;;;;;;9.15;2.03;;;;;;;;;;5089218;28;20039;-74
2022/11/05 06:00:34;;;;;;;11.40;2.00;;;;;;;;;;5090506;28;20031;-74
2022/11/05 06:02:59;;;;;;;12.18;2.17;;;;;;;;;;5090117;28;20522;-74
2022/11/05 06:05:25;;;;;;;17.20;2.65;;;;;;;;;;5072032;28;20077;-74
2022/11/05 06:07:57;;;;;;;11.05;2.45;;;;;;;;;;5090117;28;20068;-74
2022/11/05 06:10:23;;;;;;;14.93;2.03;;;;;;;;;;5090263;28;20467;-74
2022/11/05 06:12:49;;;;;;;9.57;1.88;;;;;;;;;;5089812;28;20028;-73
2022/11/05 06:15:14;;;;;;;11.95;1.95;;;;;;;;;;5090101;28;20035;-74
2022/11/05 06:17:42;;;;;;;12.20;2.50;;;;;;;;;;5089661;28;20024;-74
2022/11/05 06:20:08;;;;;;;12.05;2.70;;;;;;;;;;5090153;28;20036;-74
2022/11/05 06:22:33;;;;;;;9.07;1.63;;;;;;;;;;5090087;28;20166;-74
2022/11/05 06:24:59;;;;;;;12.10;2.40;;;;;;;;;;5089980;28;20030;-74
2022/11/05 06:27:24;;;;;;;10.35;2.25;;;;;;;;;;5089671;28;20518;-74
2022/11/05 06:29:50;;;;;;;7.55;1.80;;;;;;;;;;5090118;28;20476;-73
2022/11/05 06:32:15;;;;;;;17.08;2.40;;;;;;;;;;5089746;28;20042;-74
2022/11/05 06:34:40;;;;;;;12.48;2.15;;;;;;;;;;5089907;28;20081;-74
2022/11/05 06:37:06;;;;;;;10.75;1.95;;;;;;;;;;5089463;28;20016;-74
2022/11/05 06:39:31;;;;;;;11.30;2.30;;;;;;;;;;5090161;28;20020;-74
2022/11/05 06:41:57;;;;;;;7.80;1.73;;;;;;;;;;5089562;28;20371;-73
2022/11/05 06:44:22;;;;;;;10.43;1.92;;;;;;;;;;5089880;28;20044;-74
2022/11/05 06:46:47;;;;;;;11.90;2.28;;;;;;;;;;5071091;28;20028;-73
2022/11/05 06:49:13;;;;;;;10.75;1.85;;;;;;;;;;5089923;28;20323;-73
2022/11/05 06:51:38;;;;;;;10.55;2.22;;;;;;;;;;5089481;28;20024;-73
2022/11/05 06:54:03;;;;;;;10.10;2.30;;;;;;;;;;5089828;28;20107;-73
2022/11/05 06:56:29;;;;;;;12.65;2.08;;;;;;;;;;5089153;28;20052;-73
2022/11/05 06:58:54;;;;;;;12.98;1.90;;;;;;;;;;5089587;28;20052;-73
2022/11/05 07:01:20;;;;;;;12.70;2.20;;;;;;;;;;5089542;28;20028;-73
2022/11/05 07:03:47;;;;;;;15.75;2.05;;;;;;;;;;5090073;28;20028;-73
2022/11/05 07:06:13;;;;;;;13.73;2.33;;;;;;;;;;5089603;28;20080;-73
2022/11/05 07:08:38;;;;;;;9.27;2.38;;;;;;;;;;5089879;28;20489;-73
2022/11/05 07:11:04;;;;;;;15.13;2.45;;;;;;;;;;5093601;28;20051;-73
2022/11/05 07:13:30;;;;;;;18.30;2.45;;;;;;;;;;5092911;28;20020;-73
2022/11/05 07:15:55;;;;;;;10.77;2.03;;;;;;;;;;5093187;28;20019;-73
2022/11/05 07:18:21;;;;;;;11.35;1.98;;;;;;;;;;5093014;28;20016;-74
2022/11/05 07:20:47;;;;;;;13.38;2.58;;;;;;;;;;5093428;28;20601;-73
2022/11/05 07:23:13;;;;;;;12.60;2.15;;;;;;;;;;5093205;28;20047;-73
2022/11/05 07:25:40;;;;;;;10.75;2.30;;;;;;;;;;5092992;28;20453;-73
2022/11/05 07:28:06;;;;;;;10.98;2.35;;;;;;;;;;5092976;28;20020;-73
2022/11/05 07:30:32;;;;;;;13.40;2.38;;;;;;;;;;5093161;28;20360;-73
2022/11/05 07:32:58;;;;;;;8.35;2.40;;;;;;;;;;5092655;28;20051;-73
2022/11/05 07:35:24;;;;;;;10.90;2.70;;;;;;;;;;5092916;28;20471;-73
2022/11/05 07:37:52;;;;;;;14.73;2.63;;;;;;;;;;5092868;28;20494;-73
2022/11/05 07:40:18;;;;;;;15.05;3.00;;;;;;;;;;5092816;28;20502;-73
2022/11/05 07:42:50;;;;;;;14.48;2.38;;;;;;;;;;5092339;28;20025;-73
2022/11/05 07:45:16;;;;;;;13.43;2.60;;;;;;;;;;5092792;28;20024;-73
2022/11/05 07:47:49;;;;;;;15.00;2.95;;;;;;;;;;5092420;28;20111;-73
2022/11/05 07:50:17;;;;;;;8.82;2.20;;;;;;;;;;5092778;28;20403;-72
2022/11/05 07:52:43;;;;;;;14.50;2.88;;;;;;;;;;5074097;28;20028;-73
2022/11/05 07:55:09;;;;;;;11.65;2.42;;;;;;;;;;5092638;28;20100;-72
2022/11/05 07:57:41;;;;;;;11.82;3.05;;;;;;;;;;5091781;28;20051;-73
2022/11/05 08:00:12;;;;;;;16.25;2.67;;;;;;;;;;5074612;28;20554;-73
2022/11/05 08:02:37;;;;;;;10.07;2.47;;;;;;;;;;5074774;28;20039;-73
2022/11/05 08:05:03;;;;;;;13.82;2.92;;;;;;;;;;5092565;28;20028;-73
2022/11/05 08:07:28;;;;;;;12.85;2.85;;;;;;;;;;5092016;28;20050;-73
2022/11/05 08:09:54;;;;;;;9.52;2.72;;;;;;;;;;5092367;28;20020;-74
2022/11/05 08:12:19;;;;;;;12.25;2.80;;;;;;;;;;5073872;28;20033;-73
2022/11/05 08:14:44;;;;;;;14.60;3.22;;;;;;;;;;5092489;28;20056;-73
2022/11/05 08:17:10;;;;;;;15.75;3.20;;;;;;;;;;5073844;28;20479;-73
2022/11/05 08:19:35;;;;;;;11.60;3.20;;;;;;;;;;5092158;28;20024;-73
2022/11/05 08:22:01;;;;;;;16.05;3.97;;;;;;;;;;5091311;28;20032;-73
2022/11/05 08:24:26;;;;;;;17.58;3.28;;;;;;;;;;5091888;28;20028;-73
2022/11/05 08:26:52;;;;;;;14.85;3.30;;;;;;;;;;5091538;28;20036;-73
2022/11/05 08:29:17;;;;;;;16.65;3.05;;;;;;;;;;5091595;28;20484;-73
2022/11/05 08:31:42;;;;;;;13.80;2.78;;;;;;;;;;5092101;28;20409;-73
2022/11/05 08:34:08;;;;;;;10.32;3.20;;;;;;;;;;5091654;28;20032;-73
2022/11/05 08:36:34;;;;;;;17.40;3.17;;;;;;;;;;5091907;28;20035;-73
2022/11/05 08:38:59;;;;;;;13.60;3.25;;;;;;;;;;5091699;28;20074;-73
2022/11/05 08:41:24;;;;;;;13.25;3.05;;;;;;;;;;5091536;28;20165;-74
2022/11/05 08:43:53;;;;;;;14.48;3.03;;;;;;;;;;5091281;28;20039;-74
2022/11/05 08:46:18;;;;;;;17.13;3.20;;;;;;;;;;5091400;28;20105;-73
2022/11/05 08:48:43;;;;;;;14.05;2.80;;;;;;;;;;5091499;28;20056;-73
2022/11/05 08:51:09;;;;;;;12.68;3.03;;;;;;;;;;5091584;28;20388;-73
2022/11/05 08:53:34;;;;;;;12.40;2.50;;;;;;;;;;5073116;28;20032;-73
2022/11/05 08:56:00;;;;;;;16.85;3.05;;;;;;;;;;5091289;28;20040;-74
2022/11/05 08:58:25;;;;;;;14.10;2.70;;;;;;;;;;5072908;28;20500;-73
2022/11/05 09:00:50;;;;;;;11.32;2.70;;;;;;;;;;5073453;28;20039;-74
2022/11/05 09:03:16;;;;;;;9.85;2.70;;;;;;;;;;5090957;28;20468;-74
2022/11/05 09:05:42;;;;;;;12.70;2.75;;;;;;;;;;5091256;28;20407;-74
2022/11/05 09:08:17;;;;;;;9.88;2.13;;;;;;;;;;5090909;28;20039;-73
2022/11/05 09:10:43;;;;;;;11.63;2.35;;;;;;;;;;5091734;28;20032;-74
2022/11/05 09:13:09;;;;;;;8.02;2.40;;;;;;;;;;5090909;28;20107;-74
2022/11/05 09:15:35;;;;;;;14.05;2.53;;;;;;;;;;5091020;28;20111;-74
2022/11/05 09:18:02;;;;;;;9.63;1.98;;;;;;;;;;5090817;28;20541;-73
2022/11/05 09:20:28;;;;;;;13.60;2.60;;;;;;;;;;5091092;28;20180;-74
2022/11/05 09:22:53;;;;;;;13.70;2.40;;;;;;;;;;5072909;28;20549;-74
2022/11/05 09:25:19;;;;;;;10.85;2.35;;;;;;;;;;5072552;28;20028;-74
2022/11/05 09:27:44;;;;;;;11.00;2.53;;;;;;;;;;5090571;28;20081;-74
2022/11/05 09:30:11;;;;;;;11.63;2.65;;;;;;;;;;5090703;28;20024;-73
2022/11/05 09:32:37;;;;;;;11.35;2.25;;;;;;;;;;5072652;28;20073;-74
2022/11/05 09:35:03;;;;;;;9.05;2.00;;;;;;;;;;5090672;28;20024;-73
2022/11/05 09:37:29;;;;;;;11.05;2.30;;;;;;;;;;5090626;28;20119;-74
2022/11/05 09:39:54;;;;;;;10.10;2.13;;;;;;;;;;5072019;28;20123;-74
2022/11/05 09:42:25;;;;;;;12.40;2.30;;;;;;;;;;5090314;28;20530;-74
2022/11/05 09:45:22;;;;;;;9.98;2.47;;;;;;;;;;5090284;28;20043;-74
2022/11/05 09:47:54;;;;;;;10.18;2.60;;;;;;;;;;5089920;28;20044;-74
2022/11/05 09:50:41;;;;;;;12.10;2.40;;;;;;;;;;5090140;28;20526;-74
2022/11/05 09:53:11;;;;;;;12.75;2.28;;;;;;;;;;5090778;28;20092;-74
2022/11/05 09:55:40;;;;;;;7.32;2.00;;;;;;;;;;5072442;28;20040;-74
2022/11/05 09:58:15;;;;;;;10.75;2.15;;;;;;;;;;5090144;28;20469;-74
2022/11/05 10:00:41;;;;;;;9.20;1.90;;;;;;;;;;5090053;28;20024;-74
2022/11/05 10:03:12;;;;;;;11.50;2.40;;;;;;;;;;5090597;28;20081;-74
2022/11/05 10:05:39;;;;;;;7.78;2.10;;;;;;;;;;5090134;28;20384;-74
2022/11/05 10:08:21;;;;;;;9.15;2.00;;;;;;;;;;5071846;28;20075;-74
2022/11/05 10:10:51;;;;;;;8.45;1.90;;;;;;;;;;5090118;28;20042;-73
2022/11/05 10:13:41;;;;;;;8.38;2.00;;;;;;;;;;5090168;28;20024;-74
2022/11/05 10:16:18;;;;;;;9.63;2.10;;;;;;;;;;5089974;28;20028;-73
2022/11/05 10:18:49;;;;;;;12.13;2.40;;;;;;;;;;5089845;28;20042;-74
2022/11/05 10:21:18;;;;;;;13.00;2.13;;;;;;;;;;5090159;28;20032;-74
2022/11/05 10:23:44;;;;;;;6.85;1.60;;;;;;;;;;5090230;28;20036;-74
2022/11/05 10:26:13;;;;;;;7.25;1.88;;;;;;;;;;5089867;28;20031;-74
2022/11/05 10:28:39;;;;;;;11.38;1.80;;;;;;;;;;5089786;28;20038;-74
2022/11/05 10:31:11;;;;;;;11.25;1.98;;;;;;;;;;5090120;28;20032;-74
2022/11/05 10:33:45;;;;;;;12.27;2.10;;;;;;;;;;5090343;28;20479;-74
2022/11/05 10:36:17;;;;;;;12.20;2.42;;;;;;;;;;5089631;28;20369;-74
2022/11/05 10:38:43;;;;;;;9.93;1.90;;;;;;;;;;5089662;28;20055;-74
2022/11/05 10:41:42;;;;;;;8.57;1.98;;;;;;;;;;5089814;28;20028;-74
2022/11/05 10:44:32;;;;;;;7.57;1.60;;;;;;;;;;5090793;28;20032;-74
2022/11/05 10:47:16;;;;;;;9.60;1.87;;;;;;;;;;5093933;28;20024;-74
2022/11/05 10:49:55;;;;;;;8.80;1.90;;;;;;;;;;5075340;28;20032;-74
2022/11/05 10:52:46;;;;;;;13.37;2.30;;;;;;;;;;5093815;28;20055;-74
2022/11/05 10:55:22;;;;;;;7.88;1.80;;;;;;;;;;5093434;28;20031;-74
2022/11/05 10:57:50;;;;;;;12.05;2.00;;;;;;;;;;5093379;28;20056;-74
2022/11/05 11:00:15;;;;;;;9.18;2.03;;;;;;;;;;5093616;28;20568;-74
2022/11/05 11:02:42;;;;;;;9.48;2.00;;;;;;;;;;5093788;28;20028;-74
2022/11/05 11:05:10;;;;;;;9.82;1.88;;;;;;;;;;5093358;28;20031;-74
2022/11/05 11:07:35;;;;;;;10.98;1.80;;;;;;;;;;5093399;28;20036;-74
2022/11/05 11:10:01;;;;;;;12.13;2.10;;;;;;;;;;5093628;28;20031;-74
2022/11/05 11:12:35;;;;;;;11.60;1.98;;;;;;;;;;5093453;28;20421;-74
2022/11/05 11:15:20;;;;;;;11.23;1.85;;;;;;;;;;5093036;28;20055;-74
2022/11/05 11:17:46;;;;;;;11.55;1.90;;;;;;;;;;5075042;28;20052;-74
2022/11/05 11:20:28;;;;;;;7.97;1.48;;;;;;;;;;5093152;28;20495;-74
2022/11/05 11:23:15;;;;;;;8.73;1.48;;;;;;;;;;5075333;28;20028;-74
2022/11/05 11:25:46;;;;;;;8.80;1.50;;;;;;;;;;5074819;28;20027;-74
2022/11/05 11:28:25;;;;;;;8.27;1.70;;;;;;;;;;5092916;28;20020;-74
2022/11/05 11:31:06;;;;;;;7.57;1.30;;;;;;;;;;5092828;28;20491;-74
2022/11/05 11:33:33;;;;;;;6.72;1.65;;;;;;;;;;5093377;28;20032;-74
2022/11/05 11:35:59;;;;;;;8.15;1.45;;;;;;;;;;5092835;28;20468;-74
2022/11/05 11:38:29;;;;;;;11.35;1.98;;;;;;;;;;5092661;28;20035;-73
2022/11/05 11:41:09;;;;;;;13.98;1.70;;;;;;;;;;5092779;28;20036;-74
2022/11/05 11:43:38;;;;;;;10.73;1.90;;;;;;;;;;5093097;28;20118;-73
2022/11/05 11:46:10;;;;;;;9.95;1.88;;;;;;;;;;5092927;28;20414;-74
2022/11/05 11:48:38;;;;;;;7.35;1.55;;;;;;;;;;5092654;28;20157;-74
2022/11/05 11:51:16;;;;;;;11.48;1.90;;;;;;;;;;5092283;28;20027;-74
2022/11/05 11:53:42;;;;;;;6.65;1.27;;;;;;;;;;5092800;28;20032;-74
2022/11/05 11:56:10;;;;;;;6.28;1.30;;;;;;;;;;5091009;28;20439;-73
2022/11/05 11:58:48;;;;;;;7.43;1.50;;;;;;;;;;5092415;28;20084;-74
2022/11/05 12:01:16;;;;;;;9.65;1.40;;;;;;;;;;5092416;28;20031;-74
2022/11/05 12:03:50;;;;;;;5.50;1.30;;;;;;;;;;5074259;28;20035;-74
2022/11/05 12:06:37;;;;;;;8.13;1.63;;;;;;;;;;5092093;28;20054;-75
2022/11/05 12:09:13;;;;;;;8.73;1.38;;;;;;;;;;5092187;28;20069;-74
2022/11/05 12:11:49;;;;;;;10.48;1.50;;;;;;;;;;5092214;28;20024;-74
2022/11/05 12:14:36;;;;;;;9.13;1.40;;;;;;;;;;5092532;28;20395;-74
2022/11/05 12:17:07;;;;;;;7.07;1.60;;;;;;;;;;5092167;28;20572;-74
2022/11/05 12:19:49;;;;;;;10.63;1.70;;;;;;;;;;5092235;28;20103;-74
2022/11/05 12:22:39;;;;;;;6.43;1.42;;;;;;;;;;5073696;28;20039;-74
2022/11/05 12:25:07;;;;;;;7.40;1.70;;;;;;;;;;5091957;28;20507;-74
2022/11/05 12:28:15;;;;;;;8.48;1.60;;;;;;;;;;5091431;28;20093;-74
2022/11/05 12:30:51;;;;;;;9.70;1.67;;;;;;;;;;5091786;28;20028;-74
2022/11/05 12:33:26;;;;;;;6.40;1.40;;;;;;;;;;5091977;28;20031;-74
2022/11/05 12:36:14;;;;;;;5.63;1.10;;;;;;;;;;5073504;28;20028;-74
2022/11/05 12:38:39;;;;;;;6.80;1.33;;;;;;;;;;5092034;28;20061;-74
2022/11/05 12:41:08;;;;;;;7.20;1.52;;;;;;;;;;5073352;28;20369;-73
2022/11/05 12:43:55;;;;;;;8.13;1.30;;;;;;;;;;5073311;28;20020;-73
2022/11/05 12:46:25;;;;;;;7.20;1.40;;;;;;;;;;5091424;28;20028;-73
2022/11/05 12:48:59;;;;;;;7.73;1.40;;;;;;;;;;5091822;28;20098;-74
2022/11/05 12:51:54;;;;;;;9.07;1.83;;;;;;;;;;5073117;28;20048;-74
2022/11/05 12:54:24;;;;;;;8.38;1.45;;;;;;;;;;5001460;28;20039;-74
2022/11/05 12:56:58;;;;;;;7.32;1.58;;;;;;;;;;5072748;28;20056;-74
2022/11/05 12:59:29;;;;;;;7.05;1.38;;;;;;;;;;5091404;28;20082;-74
2022/11/05 13:02:19;;;;;;;4.40;1.17;;;;;;;;;;5090968;28;20031;-74
2022/11/05 13:04:53;;;;;;;4.53;1.40;;;;;;;;;;5091279;28;20020;-74
2022/11/05 13:07:27;;;;;;;8.52;1.45;;;;;;;;;;5072408;28;20093;-73
2022/11/05 13:10:00;;;;;;;10.55;1.40;;;;;;;;;;5091037;28;20447;-74
2022/11/05 13:12:30;;;;;;;7.93;1.00;;;;;;;;;;5090897;28;20024;-73
2022/11/05 13:15:00;;;;;;;9.48;1.33;;;;;;;;;;5073120;28;20032;-74
2022/11/05 13:17:31;;;;;;;5.78;1.20;;;;;;;;;;5090849;28;20101;-74
2022/11/05 13:20:20;;;;;;;6.47;1.33;;;;;;;;;;5090838;28;20055;-73
2022/11/05 13:22:49;;;;;;;9.25;1.98;;;;;;;;;;5091140;28;20071;-74
2022/11/05 13:25:22;;;;;;;5.68;1.27;;;;;;;;;;5090569;28;20036;-74
2022/11/05 13:28:24;;;;;;;5.75;1.30;;;;;;;;;;5090145;28;20066;-73
2022/11/05 13:30:56;;;;;;;10.32;1.50;;;;;;;;;;5090688;28;20036;-73
2022/11/05 13:33:26;;;;;;;7.60;1.38;;;;;;;;;;5090810;28;20020;-74
2022/11/05 13:38:58;;;;;;;6.30;1.23;;;;;;;;;;5090626;28;20043;-74
2022/11/05 13:42:01;;;;;;;6.97;1.30;;;;;;;;;;5090263;28;20024;-73
2022/11/05 13:44:41;;;;;;;9.07;1.73;;;;;;;;;;5090561;28;20024;-73
2022/11/05 13:47:46;;;;;;;9.45;1.40;;;;;;;;;;5090363;28;20115;-74
2022/11/05 13:50:36;;;;;;;4.55;1.13;;;;;;;;;;5090656;28;20031;-73
2022/11/05 13:53:19;;;;;;;8.20;1.30;;;;;;;;;;5090366;28;20031;-74
2022/11/05 13:56:22;;;;;;;7.15;1.40;;;;;;;;;;5090334;28;20491;-74
2022/11/05 13:59:09;;;;;;;8.40;1.27;;;;;;;;;;5090049;28;20107;-74
2022/11/05 14:01:37;;;;;;;5.72;1.20;;;;;;;;;;5072032;28;20028;-74
2022/11/05 14:04:03;;;;;;;7.93;1.42;;;;;;;;;;5072097;28;20514;-73
2022/11/05 14:06:33;;;;;;;5.32;1.10;;;;;;;;;;5089774;28;20032;-74
2022/11/05 14:09:10;;;;;;;5.45;1.10;;;;;;;;;;5072334;28;20035;-74
2022/11/05 14:11:41;;;;;;;7.43;1.42;;;;;;;;;;5090020;28;20539;-73
2022/11/05 14:14:24;;;;;;;8.77;1.58;;;;;;;;;;5090373;28;20069;-73
2022/11/05 14:16:52;;;;;;;5.85;1.50;;;;;;;;;;5089611;28;20391;-74
2022/11/05 14:19:17;;;;;;;5.78;1.27;;;;;;;;;;5088937;28;20074;-74
2022/11/05 14:21:54;;;;;;;4.90;0.93;;;;;;;;;;5089806;28;20480;-74
2022/11/05 14:24:22;;;;;;;6.60;1.15;;;;;;;;;;5090061;28;20131;-74
2022/11/05 14:27:00;;;;;;;6.60;1.13;;;;;;;;;;5089799;28;20028;-74
2022/11/05 14:29:39;;;;;;;5.93;1.13;;;;;;;;;;5089591;28;20023;-74
2022/11/05 14:32:17;;;;;;;6.25;1.38;;;;;;;;;;5071556;28;20035;-73
2022/11/05 14:34:47;;;;;;;6.65;1.30;;;;;;;;;;5090291;28;20111;-73
2022/11/05 14:37:18;;;;;;;7.28;1.20;;;;;;;;;;5071293;28;20065;-73
2022/11/05 14:39:44;;;;;;;6.30;1.20;;;;;;;;;;5089684;28;20028;-73
2022/11/05 14:42:24;;;;;;;5.60;1.27;;;;;;;;;;5089489;28;20030;-76
2022/11/05 14:45:06;;;;;;;7.63;1.40;;;;;;;;;;5090091;28;20043;-76
2022/11/05 14:47:39;;;;;;;8.07;1.20;;;;;;;;;;5089714;28;20029;-74
2022/11/05 14:50:10;;;;;;;7.30;1.23;;;;;;;;;;5089758;28;20024;-74
2022/11/05 14:52:37;;;;;;;7.78;1.33;;;;;;;;;;5089652;28;20086;-74
2022/11/05 14:55:03;;;;;;;6.93;1.25;;;;;;;;;;5089747;28;20023;-74
2022/11/05 14:57:43;;;;;;;6.72;1.20;;;;;;;;;;5089369;28;20044;-74
2022/11/05 15:00:27;;;;;;;5.25;1.08;;;;;;;;;;5089879;28;20158;-75
2022/11/05 15:03:01;;;;;;;6.53;1.20;;;;;;;;;;5071579;28;20109;-74
2022/11/05 15:05:29;;;;;;;5.07;1.10;;;;;;;;;;5071485;28;20552;-74
2022/11/05 15:07:56;;;;;;;11.93;1.65;;;;;;;;;;5089514;28;20029;-74
2022/11/05 15:10:28;;;;;;;4.97;1.20;;;;;;;;;;5071632;28;20020;-74
2022/11/05 15:13:02;;;;;;;7.28;1.20;;;;;;;;;;5089171;28;20028;-74
2022/11/05 15:15:37;;;;;;;6.75;1.33;;;;;;;;;;5089545;28;20039;-74
2022/11/05 15:18:25;;;;;;;4.28;1.00;;;;;;;;;;5089391;28;20491;-74
2022/11/05 15:20:56;;;;;;;7.70;1.10;;;;;;;;;;5075227;28;20040;-73
2022/11/05 15:23:24;;;;;;;5.63;1.25;;;;;;;;;;5089232;28;20035;-74
2022/11/05 15:26:05;;;;;;;4.65;0.93;;;;;;;;;;5071237;28;20119;-74
2022/11/05 15:28:34;;;;;;;5.75;1.40;;;;;;;;;;5088870;28;20024;-74
2022/11/05 15:31:19;;;;;;;5.70;0.98;;;;;;;;;;5091870;28;20517;-74
2022/11/05 15:33:47;;;;;;;5.47;1.23;;;;;;;;;;5093379;28;20031;-74
2022/11/05 15:36:21;;;;;;;6.78;1.33;;;;;;;;;;5093302;28;20016;-74
2022/11/05 15:38:47;;;;;;;7.45;1.48;;;;;;;;;;5092540;28;20031;-74
2022/11/05 15:41:32;;;;;;;10.13;1.23;;;;;;;;;;5074831;28;20028;-74
2022/11/05 15:43:59;;;;;;;9.73;1.63;;;;;;;;;;5092733;28;20024;-74
2022/11/05 15:46:29;;;;;;;5.22;1.20;;;;;;;;;;5092759;28;20030;-75